Aeroporto :
LOGIN :

Iscrizione | Disclaimer

   EN    FR    IT 

 










Sommario :    VFR   VFR Marginale   IFR   IFR Intensivo   IFR Molto Intensivo
Visibilità : 
Base nubi : 
>= 8 km
>= 3000ft
5 / 8 km
1000 / 3000 ft
1500m / 5 km
500 / 1000 ft
800 / 1500m
200 / 500 ft
< 800m
< 200 ft
Simboli :   Temporali  Nebbia  Neve Forte  Precipitazioni Forti  Vento > 20 kt
SIGMETs :   Varie  Temporali  Ghiacco  Turbolenza  Onda orograficha  Ceneri Vulcaniche







- Altitudine del aeroporto : 106 ft
- Codice IATA : XDA
- Carte del aeroporto


LFBY - Dax Seyresse

ULTIMO METAR :
  • 242130Z AUTO 25008KT 220V280 8000 // BKN012 OVC027 19/17 Q1015

METARs OBSOLETI :
  • 242100Z AUTO 26007KT 220V290 9000 // BKN011 OVC025 19/17 Q1015
  • 242030Z AUTO 27006KT 230V300 8000 // BKN010 OVC023 20/17 Q1015
  • 242000Z AUTO 26007KT 230V300 8000 // BKN010 OVC022 20/17 Q1014
  • 241930Z AUTO 27008KT 230V310 9000 // BKN011 BKN019 20/18 Q1014
  • 241900Z AUTO 28007KT 240V320 9999 // ////// 21/18 Q1014

Previsioni scadute.
Nessun NOTAM noto per questo aeroporto.



MetMap, La meteo Aeronautica in un colpo d'occhio ! - Copyright ORBIFLY Dicembre 2007 - Disclaimer

ORBIFLY MET'MAP TEAM :

Programmazione e sviluppo : Alexandra Zaïnal
Concezione e sviluppo : Baudouin d'Aumeries
Co-Programmazione e sviluppo : Marc-Olivier Méhu
Supporto tecnico e logistico : Manuel Goepfert
Aiuto per la traduzione : Arnaldo La Scala

Contatto : metmap@orbifly.com




FONTI E CREDITI :

   NOAA